Time;durP1;ratioP1;P1;durP2;ratioP2;P2;SDS_P1;SDS_P2;PMS_P1;PMS_P2;Temp;Humidity;BMP_temperature;BMP_pressure;BME280_temperature;BME280_humidity;BME280_pressure;Samples;Min_cycle;Max_cycle;Signal;HPM_P1;HPM_P2
2021/10/24 00:00:40;;;;;;;21.67;10.40;;;;;17.90;99468.00;;;;5106345;28;20051;-72
2021/10/24 00:03:10;;;;;;;13.55;9.32;;;;;17.80;99478.00;;;;5109190;28;20160;-73
2021/10/24 00:05:39;;;;;;;13.02;9.70;;;;;17.80;99450.00;;;;5110616;28;20051;-73
2021/10/24 00:08:09;;;;;;;17.85;10.40;;;;;17.80;99469.00;;;;5110526;28;20138;-73
2021/10/24 00:10:39;;;;;;;17.60;10.23;;;;;17.80;99444.00;;;;5110545;28;20164;-72
2021/10/24 00:13:08;;;;;;;14.27;9.20;;;;;17.60;99454.00;;;;5110646;28;20582;-72
2021/10/24 00:15:38;;;;;;;16.02;9.88;;;;;17.50;99468.00;;;;5110395;28;20047;-74
2021/10/24 00:18:07;;;;;;;15.77;9.88;;;;;17.40;99458.00;;;;5110786;28;20047;-73
2021/10/24 00:20:37;;;;;;;11.82;8.35;;;;;17.30;99451.00;;;;5110330;28;20046;-74
2021/10/24 00:23:06;;;;;;;15.07;9.50;;;;;17.30;99458.00;;;;5110618;28;21007;-73
2021/10/24 00:25:36;;;;;;;10.30;9.18;;;;;17.30;99456.00;;;;5110682;28;20063;-73
2021/10/24 00:28:05;;;;;;;13.98;8.95;;;;;17.20;99475.00;;;;5108835;28;20051;-73
2021/10/24 00:30:51;;;;;;;12.00;9.65;;;;;17.20;99473.00;;;;5109802;28;20119;-73
2021/10/24 00:33:21;;;;;;;12.15;9.77;;;;;17.20;99468.00;;;;5110258;28;20067;-72
2021/10/24 00:35:50;;;;;;;12.40;9.48;;;;;17.10;99462.00;;;;5110428;28;20097;-72
2021/10/24 00:38:20;;;;;;;14.25;9.88;;;;;17.00;99462.00;;;;5109504;28;20058;-73
2021/10/24 00:40:49;;;;;;;15.85;10.27;;;;;17.00;99462.00;;;;5109066;28;20044;-74
2021/10/24 00:43:19;;;;;;;19.45;10.35;;;;;17.00;99447.00;;;;5109625;28;20054;-72
2021/10/24 00:45:48;;;;;;;16.10;10.15;;;;;16.90;99459.00;;;;5109925;28;20763;-74
2021/10/24 00:48:18;;;;;;;14.05;10.15;;;;;16.90;99452.00;;;;5110243;28;20053;-74
2021/10/24 00:50:47;;;;;;;18.40;11.32;;;;;16.80;99469.00;;;;5109435;28;20775;-75
2021/10/24 00:53:17;;;;;;;13.57;10.43;;;;;16.80;99487.00;;;;5110035;28;20113;-74
2021/10/24 00:55:47;;;;;;;14.00;10.82;;;;;16.80;99479.00;;;;5109641;28;20059;-71
2021/10/24 00:58:17;;;;;;;18.70;11.50;;;;;16.80;99499.00;;;;5110298;28;20040;-72
2021/10/24 01:00:46;;;;;;;20.02;13.05;;;;;16.70;99499.00;;;;5109553;28;20040;-72
2021/10/24 01:03:16;;;;;;;22.25;12.68;;;;;16.80;99484.00;;;;5109428;28;20071;-73
2021/10/24 01:05:46;;;;;;;24.25;12.43;;;;;16.90;99492.00;;;;5107991;28;20047;-73
2021/10/24 01:08:17;;;;;;;16.27;12.87;;;;;17.00;99505.00;;;;5108027;28;20878;-74
2021/10/24 01:10:47;;;;;;;18.27;13.60;;;;;17.00;99495.00;;;;5108113;28;20043;-74
2021/10/24 01:13:17;;;;;;;26.10;14.30;;;;;17.10;99490.00;;;;5109262;28;20051;-73
2021/10/24 01:15:46;;;;;;;15.65;12.13;;;;;17.00;99499.00;;;;5107085;28;20434;-72
2021/10/24 01:18:16;;;;;;;13.52;12.10;;;;;17.00;99502.00;;;;5107533;28;20096;-72
2021/10/24 01:20:48;;;;;;;16.60;12.95;;;;;17.00;99518.00;;;;5108053;28;20056;-73
2021/10/24 01:23:22;;;;;;;19.63;12.32;;;;;16.90;99521.00;;;;5107406;28;20082;-73
2021/10/24 01:25:55;;;;;;;17.23;13.60;;;;;17.10;99506.00;;;;5107239;28;20588;-72
2021/10/24 01:28:26;;;;;;;14.38;13.02;;;;;17.20;99504.00;;;;5107399;28;20043;-73
2021/10/24 01:30:56;;;;;;;13.80;11.30;;;;;17.30;99520.00;;;;5105144;28;20052;-72
2021/10/24 01:33:29;;;;;;;17.60;10.90;;;;;17.30;99543.00;;;;5106761;28;20058;-73
2021/10/24 01:36:07;;;;;;;12.98;10.20;;;;;17.50;99548.00;;;;5107466;28;20058;-73
2021/10/24 01:38:38;;;;;;;13.82;9.75;;;;;17.50;99563.00;;;;5106975;28;20484;-73
2021/10/24 01:41:10;;;;;;;13.75;9.80;;;;;17.50;99562.00;;;;5109023;28;20053;-73
2021/10/24 01:43:40;;;;;;;13.32;8.70;;;;;17.50;99566.00;;;;5107732;28;20039;-72
2021/10/24 01:46:10;;;;;;;12.25;9.10;;;;;17.70;99568.00;;;;5107960;28;20039;-72
2021/10/24 01:48:40;;;;;;;12.43;8.48;;;;;17.70;99576.00;;;;5107305;28;20376;-72
2021/10/24 01:51:10;;;;;;;11.30;8.55;;;;;17.80;99580.00;;;;5107259;28;20052;-72
2021/10/24 01:53:42;;;;;;;26.27;9.30;;;;;17.80;99587.00;;;;5108960;28;20122;-72
2021/10/24 01:56:12;;;;;;;21.38;9.30;;;;;17.80;99593.00;;;;5106774;28;20047;-73
2021/10/24 01:58:43;;;;;;;25.10;15.23;;;;;17.80;99609.00;;;;5107027;28;20138;-72
2021/10/24 02:01:15;;;;;;;17.60;12.90;;;;;17.80;99599.00;;;;5106611;28;20077;-73
2021/10/24 02:04:15;;;;;;;20.63;13.38;;;;;17.80;99592.00;;;;5099032;28;20052;-72
2021/10/24 02:07:13;;;;;;;33.25;13.10;;;;;17.80;99637.00;;;;5094431;28;20503;-73
2021/10/24 02:09:43;;;;;;;18.05;13.98;;;;;17.80;99621.00;;;;5108492;28;20032;-73
2021/10/24 02:12:13;;;;;;;18.83;15.15;;;;;17.80;99623.00;;;;5106666;28;20047;-73
2021/10/24 02:14:42;;;;;;;24.17;17.45;;;;;17.80;99631.00;;;;5106840;28;20043;-74
2021/10/24 02:17:12;;;;;;;33.33;26.23;;;;;17.70;99630.00;;;;5106516;28;20043;-74
2021/10/24 02:19:42;;;;;;;33.70;27.20;;;;;17.60;99629.00;;;;5106894;28;20048;-75
2021/10/24 02:22:11;;;;;;;35.03;30.08;;;;;17.50;99651.00;;;;5107227;28;20517;-75
2021/10/24 02:24:41;;;;;;;39.20;33.38;;;;;17.50;99647.00;;;;5106633;28;20142;-76
2021/10/24 02:27:13;;;;;;;45.30;34.22;;;;;17.40;99643.00;;;;5106421;28;20609;-75
2021/10/24 02:29:43;;;;;;;40.80;31.52;;;;;17.30;99639.00;;;;5109089;28;20043;-75
2021/10/24 02:32:13;;;;;;;43.38;33.78;;;;;17.30;99642.00;;;;5106982;28;20055;-75
2021/10/24 02:35:04;;;;;;;49.38;33.50;;;;;17.30;99678.00;;;;5107938;28;20161;-75
2021/10/24 02:37:43;;;;;;;11.32;6.97;;;;;17.00;99685.00;;;;5106529;28;20051;-75
2021/10/24 02:40:19;;;;;;;32.38;5.20;;;;;16.70;99682.00;;;;5106680;28;20048;-75
2021/10/24 02:42:53;;;;;;;27.20;4.53;;;;;16.60;99694.00;;;;5106573;28;20059;-76
2021/10/24 02:45:29;;;;;;;5.97;2.33;;;;;16.30;99708.00;;;;5107723;28;20043;-78
2021/10/24 02:48:00;;;;;;;49.17;4.28;;;;;16.20;99729.00;;;;5106510;28;20575;-76
2021/10/24 02:50:32;;;;;;;12.68;1.58;;;;;16.00;99735.00;;;;5106317;28;20597;-79
2021/10/24 03:04:45;;;;;;;12.00;2.15;;;;;15.60;99768.00;;;;5124989;27;20407;-78
2021/10/24 03:07:15;;;;;;;6.63;1.85;;;;;15.60;99782.00;;;;5124070;28;20413;-75
2021/10/24 03:09:45;;;;;;;6.55;2.03;;;;;15.60;99782.00;;;;5125542;27;20042;-81
2021/10/24 03:12:15;;;;;;;1.92;1.50;;;;;15.50;99799.00;;;;5123574;28;20065;-75
2021/10/24 03:14:44;;;;;;;5.97;1.80;;;;;15.50;99774.00;;;;5124708;27;20501;-76
2021/10/24 03:17:16;;;;;;;8.38;1.65;;;;;15.40;99794.00;;;;5123879;28;20058;-75
2021/10/24 03:19:46;;;;;;;10.15;2.13;;;;;15.50;99774.00;;;;5123133;28;20047;-75
2021/10/24 03:22:16;;;;;;;5.03;1.95;;;;;15.50;99776.00;;;;5106515;28;20078;-75
2021/10/24 03:24:45;;;;;;;8.43;2.45;;;;;15.40;99780.00;;;;5124147;28;20043;-75
2021/10/24 03:27:16;;;;;;;11.07;2.50;;;;;15.40;99772.00;;;;5123504;28;20055;-75
2021/10/24 03:29:46;;;;;;;5.28;2.00;;;;;15.50;99788.00;;;;5123337;28;20301;-75
2021/10/24 03:32:16;;;;;;;3.22;2.40;;;;;15.50;99781.00;;;;5123855;28;20514;-74
2021/10/24 03:34:45;;;;;;;4.35;2.30;;;;;15.50;99788.00;;;;5123390;28;20047;-74
2021/10/24 03:37:15;;;;;;;3.65;2.45;;;;;15.60;99776.00;;;;5122724;28;20524;-74
2021/10/24 03:39:45;;;;;;;3.25;2.50;;;;;15.70;99789.00;;;;5124988;27;20506;-75
2021/10/24 03:42:14;;;;;;;5.32;2.75;;;;;15.70;99772.00;;;;5124421;27;20036;-75
2021/10/24 03:44:45;;;;;;;8.43;2.65;;;;;15.60;99771.00;;;;5122906;28;20051;-75
2021/10/24 03:47:19;;;;;;;5.40;2.80;;;;;15.60;99794.00;;;;5122819;28;20045;-74
2021/10/24 03:49:50;;;;;;;9.63;3.30;;;;;15.70;99794.00;;;;5105949;28;20078;-74
2021/10/24 03:52:19;;;;;;;8.75;3.28;;;;;15.70;99784.00;;;;5122469;28;20051;-73
2021/10/24 03:54:50;;;;;;;;;;;;;15.70;99797.00;;;;5122766;28;20047;-74
2021/10/24 03:57:20;;;;;;;8.73;3.10;;;;;15.70;99791.00;;;;5122670;28;19959;-74
2021/10/24 03:59:49;;;;;;;7.05;3.00;;;;;15.60;99782.00;;;;5122926;28;20050;-73
2021/10/24 04:02:21;;;;;;;7.93;3.33;;;;;15.60;99790.00;;;;5122719;28;20138;-75
2021/10/24 04:04:51;;;;;;;4.03;3.08;;;;;15.70;99768.00;;;;5115318;28;20044;-75
2021/10/24 04:07:21;;;;;;;10.35;3.55;;;;;15.60;99775.00;;;;5108743;28;20047;-74
2021/10/24 04:09:50;;;;;;;6.30;2.40;;;;;15.60;99766.00;;;;5109604;28;20051;-75
2021/10/24 04:12:19;;;;;;;9.90;2.80;;;;;15.60;99771.00;;;;5108239;28;20158;-75
2021/10/24 04:14:49;;;;;;;10.90;2.38;;;;;15.50;99747.00;;;;5108621;28;20684;-74
2021/10/24 04:17:21;;;;;;;5.38;2.60;;;;;15.50;99758.00;;;;5108298;28;20055;-75
2021/10/24 04:19:50;;;;;;;9.15;2.83;;;;;15.40;99747.00;;;;5108917;28;20043;-75
2021/10/24 04:22:20;;;;;;;8.63;2.83;;;;;15.40;99774.00;;;;5107982;28;20510;-73
2021/10/24 04:24:51;;;;;;;5.90;3.03;;;;;15.50;99770.00;;;;5091836;28;20055;-74
2021/10/24 04:27:21;;;;;;;7.38;3.08;;;;;15.50;99792.00;;;;5108109;28;20512;-75
2021/10/24 04:29:51;;;;;;;5.93;3.10;;;;;15.50;99773.00;;;;5108993;28;20436;-74
2021/10/24 04:32:21;;;;;;;7.43;3.37;;;;;15.50;99773.00;;;;5108501;28;20150;-75
2021/10/24 04:34:50;;;;;;;7.78;3.40;;;;;15.50;99784.00;;;;5108319;28;20048;-73
2021/10/24 04:37:25;;;;;;;10.43;3.80;;;;;15.60;99770.00;;;;5109410;28;20070;-75
2021/10/24 04:39:54;;;;;;;8.27;3.40;;;;;15.50;99766.00;;;;5108207;28;20040;-74
2021/10/24 04:42:24;;;;;;;8.93;3.38;;;;;15.60;99756.00;;;;5108047;28;20146;-74
2021/10/24 04:44:55;;;;;;;7.60;3.53;;;;;15.60;99758.00;;;;5109471;28;20047;-74
2021/10/24 04:47:24;;;;;;;6.77;3.20;;;;;15.60;99761.00;;;;5109536;28;20047;-74
2021/10/24 04:49:54;;;;;;;6.80;3.95;;;;;15.60;99759.00;;;;5109498;27;20096;-75
2021/10/24 04:52:23;;;;;;;8.60;3.60;;;;;15.60;99745.00;;;;5107397;28;20043;-75
2021/10/24 04:54:53;;;;;;;9.65;3.53;;;;;15.50;99735.00;;;;5109213;28;20042;-74
2021/10/24 04:57:22;;;;;;;14.88;4.15;;;;;15.70;99746.00;;;;5108053;28;20407;-74
2021/10/24 04:59:52;;;;;;;5.07;3.78;;;;;15.60;99761.00;;;;5107645;28;20048;-74
2021/10/24 05:02:21;;;;;;;9.15;3.22;;;;;15.60;99769.00;;;;5109096;28;20047;-74
2021/10/24 05:04:51;;;;;;;4.38;3.17;;;;;15.60;99764.00;;;;5107542;28;20639;-73
2021/10/24 05:07:21;;;;;;;6.35;3.50;;;;;15.60;99751.00;;;;5107464;28;20062;-74
2021/10/24 05:09:50;;;;;;;6.22;3.40;;;;;15.60;99756.00;;;;5109126;28;20050;-74
2021/10/24 05:12:21;;;;;;;6.28;2.75;;;;;15.60;99753.00;;;;5107285;28;20781;-73
2021/10/24 05:14:54;;;;;;;2.83;2.53;;;;;15.60;99772.00;;;;5106966;28;20130;-74
2021/10/24 05:17:24;;;;;;;4.72;2.15;;;;;15.60;99785.00;;;;5107749;28;20062;-74
2021/10/24 05:19:54;;;;;;;6.35;2.30;;;;;15.60;99778.00;;;;5107466;28;20410;-74
2021/10/24 05:22:24;;;;;;;4.53;2.17;;;;;15.50;99787.00;;;;5090621;28;20039;-73
2021/10/24 05:24:53;;;;;;;2.55;1.85;;;;;15.50;99776.00;;;;5107567;28;20504;-73
2021/10/24 05:27:24;;;;;;;4.22;1.85;;;;;15.50;99782.00;;;;5106931;28;20040;-73
2021/10/24 05:29:59;;;;;;;6.50;2.13;;;;;15.50;99776.00;;;;5106555;28;20437;-73
2021/10/24 05:32:31;;;;;;;6.05;2.53;;;;;15.60;99786.00;;;;5107096;28;20071;-73
2021/10/24 05:35:03;;;;;;;4.43;2.20;;;;;15.50;99766.00;;;;5107224;28;20058;-73
2021/10/24 05:37:33;;;;;;;5.43;2.30;;;;;15.50;99799.00;;;;5107092;28;20043;-73
2021/10/24 05:40:03;;;;;;;5.53;2.63;;;;;15.40;99776.00;;;;5107112;28;20048;-74
2021/10/24 05:42:55;;;;;;;10.32;2.90;;;;;15.40;99789.00;;;;5102821;28;20062;-74
2021/10/24 05:45:26;;;;;;;4.20;2.25;;;;;15.50;99757.00;;;;5107429;28;20070;-75
2021/10/24 05:47:57;;;;;;;5.82;2.50;;;;;15.50;99784.00;;;;5106775;28;20097;-74
2021/10/24 05:50:42;;;;;;;5.90;2.95;;;;;15.50;99772.00;;;;5106643;28;20047;-74
2021/10/24 05:53:12;;;;;;;2.90;2.22;;;;;15.50;99801.00;;;;5106502;28;20070;-74
2021/10/24 05:55:42;;;;;;;7.07;2.20;;;;;15.50;99807.00;;;;5106782;28;20051;-74
2021/10/24 05:58:11;;;;;;;6.22;2.70;;;;;15.50;99793.00;;;;5106496;28;20043;-73
2021/10/24 06:01:11;;;;;;;5.55;2.08;;;;;15.50;99813.00;;;;5106871;28;20051;-74
2021/10/24 06:04:04;;;;;;;3.67;2.47;;;;;15.50;99822.00;;;;5078204;28;20055;-76
2021/10/24 06:06:52;;;;;;;4.82;2.35;;;;;15.40;99831.00;;;;5107807;28;20070;-75
2021/10/24 06:09:29;;;;;;;9.00;2.92;;;;;15.40;99836.00;;;;5106005;28;20050;-75
2021/10/24 06:12:01;;;;;;;7.13;3.30;;;;;15.40;99827.00;;;;5106483;28;20051;-75
2021/10/24 06:14:30;;;;;;;3.30;2.88;;;;;15.40;99807.00;;;;5107619;28;20413;-75
2021/10/24 06:17:01;;;;;;;9.05;2.92;;;;;15.40;99810.00;;;;5107808;28;20043;-73
2021/10/24 06:19:30;;;;;;;13.32;3.17;;;;;15.30;99821.00;;;;5106476;28;20039;-74
2021/10/24 06:22:00;;;;;;;6.10;2.40;;;;;15.40;99841.00;;;;5107320;28;20466;-74
2021/10/24 06:24:30;;;;;;;11.63;2.40;;;;;15.40;99834.00;;;;5107219;28;20449;-74
2021/10/24 06:26:59;;;;;;;13.30;2.60;;;;;15.40;99831.00;;;;5106339;28;20051;-74
2021/10/24 06:29:28;;;;;;;7.55;2.38;;;;;15.30;99840.00;;;;5106323;28;20043;-73
2021/10/24 06:31:59;;;;;;;10.27;2.28;;;;;15.30;99835.00;;;;5106326;28;20581;-74
2021/10/24 06:35:01;;;;;;;9.05;1.73;;;;;15.30;99828.00;;;;5083315;28;20064;-73
2021/10/24 06:37:51;;;;;;;5.43;2.00;;;;;15.20;99835.00;;;;5107325;28;20527;-74
2021/10/24 06:40:22;;;;;;;3.30;1.88;;;;;15.30;99828.00;;;;5106072;28;20051;-73
2021/10/24 06:42:58;;;;;;;7.85;1.58;;;;;15.20;99832.00;;;;5106239;28;20062;-73
2021/10/24 06:45:54;;;;;;;8.05;2.10;;;;;15.20;99836.00;;;;5106889;28;20513;-74
2021/10/24 06:48:42;;;;;;;7.78;1.70;;;;;15.20;99835.00;;;;5107297;28;20177;-73
2021/10/24 06:51:23;;;;;;;12.27;2.15;;;;;15.20;99848.00;;;;5105447;28;20557;-74
2021/10/24 06:54:12;;;;;;;4.35;2.40;;;;;15.20;99828.00;;;;5106196;28;20054;-73
2021/10/24 06:57:00;;;;;;;3.92;2.17;;;;;15.20;99855.00;;;;5107452;28;20100;-74
2021/10/24 06:59:49;;;;;;;9.07;2.00;;;;;15.10;99842.00;;;;5107606;28;20067;-74
2021/10/24 07:02:21;;;;;;;5.97;2.20;;;;;15.20;99828.00;;;;5107042;28;20131;-73
2021/10/24 07:05:27;;;;;;;5.32;2.13;;;;;15.10;99834.00;;;;5063862;28;20185;-73
2021/10/24 07:08:06;;;;;;;15.00;2.40;;;;;15.00;99842.00;;;;5097242;28;20052;-74
2021/10/24 07:10:37;;;;;;;12.57;2.95;;;;;15.10;99868.00;;;;5105461;28;20555;-73
2021/10/24 07:13:06;;;;;;;10.68;2.75;;;;;15.00;99881.00;;;;5105482;28;20498;-74
2021/10/24 07:15:36;;;;;;;5.93;2.50;;;;;15.00;99875.00;;;;5105472;28;20055;-75
2021/10/24 07:18:06;;;;;;;7.78;2.80;;;;;15.10;99903.00;;;;5106709;28;20131;-75
2021/10/24 07:20:35;;;;;;;9.00;3.10;;;;;15.00;99919.00;;;;5105479;28;20043;-72
2021/10/24 07:23:05;;;;;;;8.65;2.78;;;;;15.10;99929.00;;;;5089288;28;20047;-73
2021/10/24 07:25:57;;;;;;;5.97;3.08;;;;;15.00;99946.00;;;;5106608;28;20056;-75
2021/10/24 07:28:27;;;;;;;11.20;3.00;;;;;15.10;99939.00;;;;5105164;28;20043;-73
2021/10/24 07:31:17;;;;;;;4.85;2.45;;;;;15.00;99962.00;;;;5105502;28;20413;-73
2021/10/24 07:34:01;;;;;;;4.80;2.70;;;;;15.00;99982.00;;;;5105854;28;20040;-74
2021/10/24 07:36:41;;;;;;;6.50;2.63;;;;;15.00;99991.00;;;;5105386;28;20047;-74
2021/10/24 07:39:10;;;;;;;4.55;2.65;;;;;15.00;99979.00;;;;5106742;28;20567;-73
2021/10/24 07:41:40;;;;;;;4.35;3.05;;;;;15.00;99995.00;;;;5110037;28;20051;-74
2021/10/24 07:44:11;;;;;;;5.65;2.65;;;;;14.90;100001.00;;;;5109765;28;20068;-75
2021/10/24 07:46:40;;;;;;;;;;;;;14.90;100012.00;;;;5109794;28;20044;-72
2021/10/24 07:49:11;;;;;;;6.20;2.97;;;;;15.00;100019.00;;;;5109278;28;19927;-75
2021/10/24 07:51:41;;;;;;;7.85;2.80;;;;;14.90;100030.00;;;;5108690;28;20058;-72
2021/10/24 07:54:11;;;;;;;4.03;3.10;;;;;14.90;100051.00;;;;5110635;28;20502;-73
2021/10/24 07:56:40;;;;;;;6.80;2.90;;;;;14.90;100054.00;;;;5108969;28;20047;-77
2021/10/24 07:59:18;;;;;;;8.57;3.30;;;;;14.90;100048.00;;;;5110144;28;20048;-72
2021/10/24 08:01:49;;;;;;;5.97;2.70;;;;;14.90;100054.00;;;;5110162;28;20047;-74
2021/10/24 08:04:20;;;;;;;7.38;3.63;;;;;14.90;100052.00;;;;5108843;28;20168;-74
2021/10/24 08:06:49;;;;;;;5.65;3.80;;;;;15.00;100064.00;;;;5110462;28;20039;-72
2021/10/24 08:09:20;;;;;;;7.55;4.00;;;;;14.90;100074.00;;;;5108731;28;20047;-74
2021/10/24 08:11:50;;;;;;;10.35;5.20;;;;;14.90;100065.00;;;;5108835;28;20047;-73
2021/10/24 08:14:20;;;;;;;10.63;4.47;;;;;14.90;100079.00;;;;5109978;28;20091;-73
2021/10/24 08:16:50;;;;;;;7.55;4.30;;;;;15.00;100059.00;;;;5091963;28;20055;-72
2021/10/24 08:19:24;;;;;;;12.60;6.82;;;;;14.90;100045.00;;;;5108177;28;20074;-72
2021/10/24 08:22:04;;;;;;;14.27;6.00;;;;;14.80;100059.00;;;;5108789;28;20043;-73
2021/10/24 08:24:38;;;;;;;6.35;5.28;;;;;14.80;100073.00;;;;5108800;28;20143;-71
2021/10/24 08:27:16;;;;;;;11.50;5.68;;;;;14.90;100086.00;;;;5108810;28;20167;-73
2021/10/24 08:29:47;;;;;;;6.77;5.27;;;;;14.90;100095.00;;;;5108045;28;20586;-74
2021/10/24 08:32:39;;;;;;;10.57;4.90;;;;;14.80;100106.00;;;;5108257;28;20413;-72
2021/10/24 08:35:09;;;;;;;8.27;4.50;;;;;14.80;100119.00;;;;5107558;28;20120;-72
2021/10/24 08:37:39;;;;;;;6.65;4.60;;;;;14.80;100131.00;;;;5109986;28;20039;-72
2021/10/24 08:40:09;;;;;;;10.45;4.55;;;;;14.80;100131.00;;;;5109674;28;20498;-72
2021/10/24 08:42:40;;;;;;;7.05;4.03;;;;;14.80;100138.00;;;;5109593;28;20040;-74
2021/10/24 08:45:11;;;;;;;4.63;4.18;;;;;14.90;100161.00;;;;5109967;28;20044;-73
2021/10/24 08:47:41;;;;;;;5.45;4.05;;;;;14.80;100151.00;;;;5109610;28;20492;-72
2021/10/24 08:50:13;;;;;;;5.18;3.78;;;;;14.80;100146.00;;;;5109410;28;20043;-75
2021/10/24 08:52:44;;;;;;;5.43;3.95;;;;;14.80;100161.00;;;;5109250;28;20513;-72
2021/10/24 08:55:14;;;;;;;4.55;3.65;;;;;14.70;100133.00;;;;5109435;28;21181;-73
2021/10/24 08:57:48;;;;;;;6.50;3.50;;;;;14.70;100160.00;;;;5109091;27;20414;-74
2021/10/24 09:00:38;;;;;;;6.28;2.75;;;;;14.70;100159.00;;;;5109109;28;20106;-71
2021/10/24 09:03:12;;;;;;;8.23;3.20;;;;;14.70;100164.00;;;;5109454;28;20055;-73
2021/10/24 09:05:52;;;;;;;7.50;3.38;;;;;14.70;100169.00;;;;5109264;28;20059;-73
2021/10/24 09:08:23;;;;;;;8.98;3.58;;;;;14.70;100166.00;;;;5109395;27;20502;-72
2021/10/24 09:11:02;;;;;;;10.63;3.58;;;;;14.70;100181.00;;;;5109285;28;20130;-71
2021/10/24 09:13:34;;;;;;;7.32;3.55;;;;;14.70;100196.00;;;;5108522;28;20047;-73
2021/10/24 09:16:09;;;;;;;6.20;3.28;;;;;14.70;100191.00;;;;5108777;28;20047;-72
2021/10/24 09:18:43;;;;;;;8.23;3.42;;;;;14.70;100198.00;;;;5109097;28;20040;-73
2021/10/24 09:21:24;;;;;;;7.10;3.40;;;;;14.80;100216.00;;;;5107764;28;20138;-74
2021/10/24 09:24:06;;;;;;;5.57;3.50;;;;;14.80;100224.00;;;;5108660;28;20043;-74
2021/10/24 09:26:36;;;;;;;3.88;3.53;;;;;14.80;100228.00;;;;5108579;28;20506;-74
2021/10/24 09:29:15;;;;;;;10.52;3.13;;;;;14.80;100238.00;;;;5109667;28;20487;-76
2021/10/24 09:31:51;;;;;;;3.72;3.03;;;;;14.80;100250.00;;;;5108473;28;20036;-75
2021/10/24 09:34:25;;;;;;;6.57;3.10;;;;;14.80;100252.00;;;;5108447;28;20046;-74
2021/10/24 09:37:25;;;;;;;5.38;2.75;;;;;14.90;100253.00;;;;5108090;28;20101;-74
2021/10/24 09:40:18;;;;;;;14.02;4.07;;;;;15.00;100247.00;;;;5108545;28;20063;-74
2021/10/24 09:42:48;;;;;;;5.47;3.03;;;;;15.10;100271.00;;;;5108228;28;20070;-76
2021/10/24 09:45:17;;;;;;;5.43;3.28;;;;;15.10;100270.00;;;;5108274;28;20109;-74
2021/10/24 09:47:48;;;;;;;4.38;2.90;;;;;15.00;100264.00;;;;5106833;28;20623;-77
2021/10/24 09:50:33;;;;;;;15.68;4.25;;;;;15.20;100254.00;;;;5108069;28;20573;-76
2021/10/24 09:53:17;;;;;;;6.45;3.78;;;;;15.60;100260.00;;;;5108021;28;20525;-75
2021/10/24 09:56:08;;;;;;;5.13;3.42;;;;;16.00;100226.00;;;;5107936;28;20490;-75
2021/10/24 09:58:41;;;;;;;10.77;3.80;;;;;16.30;100244.00;;;;5108123;28;20105;-72
2021/10/24 10:01:15;;;;;;;6.18;2.97;;;;;16.90;100256.00;;;;5107628;28;20510;-73
2021/10/24 10:03:47;;;;;;;6.82;2.80;;;;;16.90;100248.00;;;;5107179;28;20083;-75
2021/10/24 10:06:23;;;;;;;5.05;2.60;;;;;18.30;100253.00;;;;5108322;28;20046;-75
2021/10/24 10:08:53;;;;;;;7.20;2.80;;;;;17.80;100253.00;;;;5107595;28;20035;-76
2021/10/24 10:11:39;;;;;;;5.75;2.80;;;;;17.20;100277.00;;;;5107637;28;20055;-75
2021/10/24 10:14:23;;;;;;;6.78;2.95;;;;;17.00;100241.00;;;;5108310;28;20043;-73
2021/10/24 10:17:14;;;;;;;7.35;3.20;;;;;17.90;100220.00;;;;5108408;28;20405;-73
2021/10/24 10:19:44;;;;;;;8.50;3.10;;;;;18.50;100258.00;;;;5108023;28;20514;-73
2021/10/24 10:22:22;;;;;;;5.47;3.08;;;;;21.00;100269.00;;;;5106616;28;20047;-74
2021/10/24 10:24:59;;;;;;;7.18;2.90;;;;;19.40;100296.00;;;;5107797;28;20039;-73
2021/10/24 10:27:29;;;;;;;10.68;3.03;;;;;17.30;100310.00;;;;5106831;28;20823;-74
2021/10/24 10:30:01;;;;;;;12.90;3.38;;;;;16.90;100298.00;;;;5107605;28;20050;-75
2021/10/24 10:32:49;;;;;;;5.50;2.67;;;;;20.30;100287.00;;;;5107755;28;20046;-73
2021/10/24 10:35:22;;;;;;;7.72;3.15;;;;;17.50;100304.00;;;;5107564;28;20039;-73
2021/10/24 10:38:03;;;;;;;11.07;3.55;;;;;19.10;100253.00;;;;5108272;28;20114;-75
2021/10/24 10:40:38;;;;;;;7.63;2.90;;;;;19.40;100268.00;;;;5107563;28;20067;-75
2021/10/24 10:43:17;;;;;;;7.05;3.05;;;;;21.30;100246.00;;;;5107760;28;20195;-75
2021/10/24 10:46:07;;;;;;;9.25;2.80;;;;;17.70;100315.00;;;;5107340;28;20123;-74
2021/10/24 10:48:46;;;;;;;9.30;3.47;;;;;17.90;100313.00;;;;5108576;28;20686;-75
2021/10/24 10:51:19;;;;;;;11.27;4.30;;;;;18.90;100330.00;;;;5107273;28;20142;-75
2021/10/24 10:53:52;;;;;;;7.32;2.80;;;;;17.50;100323.00;;;;5107388;28;20048;-73
2021/10/24 10:56:31;;;;;;;7.35;3.00;;;;;18.70;100320.00;;;;5107305;28;20046;-73
2021/10/24 10:59:04;;;;;;;4.32;2.10;;;;;22.70;100280.00;;;;5107369;28;20664;-72
2021/10/24 11:01:39;;;;;;;4.63;2.10;;;;;20.60;100339.00;;;;5107124;28;20776;-74
2021/10/24 11:04:23;;;;;;;5.13;2.17;;;;;22.70;100040.00;;;;5106777;28;20051;-74
2021/10/24 11:07:00;;;;;;;5.10;1.98;;;;;23.40;100023.00;;;;5106870;28;20497;-74
2021/10/24 11:09:42;;;;;;;3.15;1.98;;;;;21.50;100319.00;;;;5107716;28;20558;-73
2021/10/24 11:12:50;;;;;;;7.43;2.10;;;;;25.00;100224.00;;;;5107532;28;20046;-74
2021/10/24 11:15:31;;;;;;;4.32;1.58;;;;;20.50;100087.00;;;;5109489;28;20498;-73
2021/10/24 11:18:02;;;;;;;3.53;1.75;;;;;18.70;100311.00;;;;5111663;28;20043;-74
2021/10/24 11:20:39;;;;;;;;;;;;;20.80;99984.00;;;;5111550;28;20042;-73
2021/10/24 11:23:14;;;;;;;4.57;1.50;;;;;23.20;100003.00;;;;5111132;28;19927;-74
2021/10/24 11:25:50;;;;;;;5.80;1.65;;;;;23.30;100154.00;;;;5111248;28;20418;-74
2021/10/24 11:28:24;;;;;;;3.67;1.40;;;;;25.20;100034.00;;;;5110929;28;20506;-75
2021/10/24 11:31:18;;;;;;;5.57;1.40;;;;;25.60;100079.00;;;;5111189;28;20055;-71
2021/10/24 11:33:51;;;;;;;3.42;1.33;;;;;25.20;100083.00;;;;5110732;28;20040;-72
2021/10/24 11:36:23;;;;;;;4.80;1.45;;;;;25.50;100082.00;;;;5110013;28;20705;-72
2021/10/24 11:39:01;;;;;;;3.20;1.50;;;;;23.10;100280.00;;;;5109403;28;20047;-74
2021/10/24 11:41:32;;;;;;;3.13;1.30;;;;;20.40;100355.00;;;;5111061;28;20067;-74
2021/10/24 11:44:08;;;;;;;4.15;1.40;;;;;20.10;100232.00;;;;5110602;28;20078;-73
2021/10/24 11:46:38;;;;;;;5.90;1.83;;;;;21.80;100245.00;;;;5109241;28;20043;-73
2021/10/24 11:49:07;;;;;;;5.40;1.80;;;;;22.00;100245.00;;;;5110327;28;20672;-73
2021/10/24 11:51:37;;;;;;;5.00;1.30;;;;;22.90;100247.00;;;;5110934;28;20047;-73
2021/10/24 11:54:09;;;;;;;5.20;1.50;;;;;23.80;100335.00;;;;5110388;28;20048;-74
2021/10/24 11:59:38;;;;;;;4.50;1.50;;;;;22.80;100257.00;;;;5109966;28;20035;-73
2021/10/24 12:02:11;;;;;;;2.90;1.10;;;;;22.70;100272.00;;;;5110315;28;20113;-74
2021/10/24 12:04:41;;;;;;;4.68;1.30;;;;;22.10;100278.00;;;;5110794;28;20061;-74
2021/10/24 12:07:11;;;;;;;3.28;1.30;;;;;22.30;100256.00;;;;5110617;27;20605;-73
2021/10/24 12:09:52;;;;;;;5.55;1.13;;;;;22.60;100267.00;;;;5110240;28;20108;-75
2021/10/24 12:12:25;;;;;;;4.28;1.33;;;;;22.00;100281.00;;;;5110554;28;20135;-75
2021/10/24 12:15:13;;;;;;;5.97;1.35;;;;;22.30;100317.00;;;;5110360;28;20031;-75
2021/10/24 12:17:44;;;;;;;2.35;0.95;;;;;21.90;100304.00;;;;5110238;28;20038;-73
2021/10/24 12:20:29;;;;;;;1.60;0.93;;;;;22.50;100313.00;;;;5109468;28;20565;-74
2021/10/24 12:23:02;;;;;;;2.17;1.00;;;;;22.20;100318.00;;;;5110240;28;20051;-77
2021/10/24 12:25:40;;;;;;;6.57;1.10;;;;;22.30;100306.00;;;;5109861;28;20044;-74
2021/10/24 12:28:29;;;;;;;4.35;1.25;;;;;22.50;100317.00;;;;5109242;28;20047;-75
2021/10/24 12:31:21;;;;;;;4.18;0.98;;;;;22.70;100309.00;;;;5109824;28;20042;-75
2021/10/24 12:33:51;;;;;;;7.68;2.15;;;;;22.60;100296.00;;;;5109987;28;20069;-74
2021/10/24 12:36:35;;;;;;;2.30;1.83;;;;;22.80;100292.00;;;;5109912;28;20047;-75
2021/10/24 12:39:28;;;;;;;2.88;1.40;;;;;22.70;100299.00;;;;5107618;28;20047;-73
2021/10/24 12:42:03;;;;;;;5.57;1.70;;;;;22.00;100304.00;;;;5109213;27;20035;-72
2021/10/24 12:44:33;;;;;;;2.22;1.00;;;;;22.70;100322.00;;;;5110215;28;20122;-72
2021/10/24 12:47:17;;;;;;;2.13;1.15;;;;;23.00;100333.00;;;;5109381;28;20040;-73
2021/10/24 12:49:56;;;;;;;5.95;1.40;;;;;23.10;100331.00;;;;5110150;28;20039;-72
2021/10/24 12:52:26;;;;;;;2.85;1.00;;;;;23.70;100311.00;;;;5108979;28;20130;-74
2021/10/24 12:55:04;;;;;;;2.03;1.08;;;;;23.40;100321.00;;;;5109206;28;20375;-71
2021/10/24 12:57:33;;;;;;;4.10;1.15;;;;;23.10;100320.00;;;;5108908;28;20046;-74
2021/10/24 13:00:03;;;;;;;1.02;0.80;;;;;23.10;100331.00;;;;5108605;28;20047;-74